aviador You're here:

KFPR Decoded Metar

FORT PIERCE in FL, USA
Report Time2017-12-16 10:45:00
UTC Time2017-12-16 10:54:38
Flight Rules vfr VFR
WindCalm
Visibility9999 m
Phenomena:N/A
Clouds:N/A
CeilingNone
Temp10°C (ISA -5)
Dew Point10°C (100% RH)
QNH1021 hPa
Density Alt-650 ft
Elevation43 ft
Report Wrong Elevation
Raw Report
KFPR 161045Z AUTO 00000KT 10SM CLR 10/10 A3016 RMK AO2 T01000100
$=

Extra information for KFPR:More info

Metar Taf Metar & Taf Last 4 Metars F.Rules Stats Wind Profile Meteogram Temp Stats Airport Information Weather charts Add Link Nearby VenuesMetar ALERT Operation Metar Decoded Social comments

AIRNAV info for KFPR